Time;durP1;ratioP1;P1;durP2;ratioP2;P2;SDS_P1;SDS_P2;PMS_P1;PMS_P2;Temp;Humidity;BMP_temperature;BMP_pressure;BME280_temperature;BME280_humidity;BME280_pressure;Samples;Min_cycle;Max_cycle;Signal;HPM_P1;HPM_P2
2022/04/03 00:02:14;;;;;;;7.93;3.30;;;-3274.60;72.60;;;;;;5048037;28;20088;-79
2022/04/03 00:04:39;;;;;;;4.78;2.70;;;-3274.60;72.20;;;;;;5067880;28;20096;-79
2022/04/03 00:07:05;;;;;;;5.90;2.88;;;-3274.70;72.20;;;;;;5053222;28;20017;-79
2022/04/03 00:09:31;;;;;;;5.50;2.63;;;-3274.70;72.00;;;;;;5070951;28;20602;-79
2022/04/03 00:11:56;;;;;;;5.40;2.67;;;-3274.70;71.90;;;;;;5054031;28;20123;-78
2022/04/03 00:14:22;;;;;;;6.63;2.88;;;-3274.80;72.00;;;;;;5064583;28;20387;-79
2022/04/03 00:16:47;;;;;;;4.72;2.70;;;-3274.80;72.00;;;;;;5052739;28;20021;-79
2022/04/03 00:19:13;;;;;;;6.03;2.50;;;-3274.90;72.20;;;;;;5053170;28;20063;-79
2022/04/03 00:21:39;;;;;;;6.15;3.33;;;-3274.90;72.00;;;;;;5054693;28;20047;-79
2022/04/03 00:24:04;;;;;;;4.50;2.35;;;-3274.90;71.80;;;;;;5055428;28;20119;-79
2022/04/03 00:26:30;;;;;;;7.35;2.72;;;-3274.90;72.00;;;;;;5051671;28;20044;-79
2022/04/03 00:28:55;;;;;;;6.35;3.22;;;-3274.80;73.10;;;;;;5055115;28;20024;-79
2022/04/03 00:31:22;;;;;;;5.78;3.15;;;-3274.90;73.50;;;;;;5052124;28;20377;-79
2022/04/03 00:33:48;;;;;;;7.32;3.33;;;-3274.90;74.00;;;;;;5051485;28;20475;-79
2022/04/03 00:36:14;;;;;;;6.15;3.40;;;-3275.00;74.10;;;;;;5068099;28;20036;-79
2022/04/03 00:38:39;;;;;;;8.18;3.15;;;-3275.00;73.90;;;;;;5055091;28;20033;-79
2022/04/03 00:41:07;;;;;;;4.57;2.42;;;-3275.10;73.90;;;;;;5050568;28;20464;-79
2022/04/03 00:43:33;;;;;;;4.57;2.70;;;-3275.00;74.10;;;;;;5049313;28;20039;-79
2022/04/03 00:46:00;;;;;;;5.65;3.20;;;-3275.00;74.20;;;;;;5065112;28;20028;-79
2022/04/03 00:48:26;;;;;;;5.45;2.97;;;-3275.00;74.50;;;;;;5067854;28;20064;-79
2022/04/03 00:50:53;;;;;;;7.80;3.67;;;-3274.90;74.50;;;;;;5049636;28;20105;-79
2022/04/03 00:53:19;;;;;;;6.70;3.60;;;-3274.80;75.00;;;;;;5070271;28;20025;-79
2022/04/03 00:55:45;;;;;;;5.07;3.33;;;-3274.70;75.50;;;;;;5071791;28;20032;-79
2022/04/03 00:58:11;;;;;;;6.32;3.42;;;-3274.70;75.60;;;;;;5060786;28;20024;-79
2022/04/03 01:00:37;;;;;;;5.93;3.47;;;-3274.60;76.00;;;;;;5068375;28;20032;-79
2022/04/03 01:03:03;;;;;;;7.50;4.28;;;-3274.50;76.40;;;;;;5067322;28;20432;-79
2022/04/03 01:05:29;;;;;;;9.02;4.53;;;-3274.50;76.80;;;;;;5047066;28;20035;-79
2022/04/03 01:07:55;;;;;;;5.72;3.53;;;-3274.50;76.60;;;;;;5066979;28;20099;-79
2022/04/03 01:10:20;;;;;;;6.03;3.72;;;-3274.40;76.70;;;;;;5065371;28;20082;-79
2022/04/03 01:12:46;;;;;;;7.20;3.97;;;-3274.40;77.00;;;;;;5051192;28;20028;-79
2022/04/03 01:15:16;;;;;;;6.95;3.58;;;-3274.50;76.90;;;;;;5050506;28;20033;-79
2022/04/03 01:17:42;;;;;;;7.45;3.58;;;-3274.50;76.60;;;;;;5068669;28;20071;-79
2022/04/03 01:20:08;;;;;;;8.65;3.97;;;-3274.50;76.50;;;;;;5050602;28;20028;-79
2022/04/03 01:22:34;;;;;;;7.03;3.75;;;-3274.60;76.10;;;;;;5051446;28;20052;-78
2022/04/03 01:25:00;;;;;;;6.85;3.85;;;-3274.50;76.00;;;;;;5049325;28;20333;-78
2022/04/03 01:27:26;;;;;;;10.30;4.47;;;-3274.50;76.00;;;;;;5069390;28;20056;-78
2022/04/03 01:29:52;;;;;;;10.30;4.60;;;-3274.50;76.20;;;;;;5053616;28;20031;-78
2022/04/03 01:32:19;;;;;;;9.45;5.38;;;-3274.50;76.10;;;;;;5053476;28;20032;-79
2022/04/03 01:34:45;;;;;;;9.90;4.75;;;-3274.60;75.60;;;;;;5038817;28;20027;-79
2022/04/03 01:37:11;;;;;;;9.13;5.00;;;-3274.60;75.60;;;;;;5067274;28;20444;-79
2022/04/03 01:39:36;;;;;;;7.70;4.95;;;-3274.60;75.50;;;;;;5053565;28;20028;-79
2022/04/03 01:42:03;;;;;;;8.20;4.07;;;-3274.60;75.70;;;;;;5066723;28;20089;-79
2022/04/03 01:44:28;;;;;;;12.60;4.40;;;-3274.70;76.30;;;;;;5052773;28;20031;-79
2022/04/03 01:46:54;;;;;;;6.70;3.72;;;-3274.80;76.00;;;;;;5068358;28;20032;-79
2022/04/03 01:49:19;;;;;;;11.30;3.63;;;-3274.90;75.00;;;;;;5064336;28;20056;-79
2022/04/03 01:51:45;;;;;;;11.25;4.13;;;-3275.00;74.70;;;;;;5046788;28;20042;-79
2022/04/03 01:54:11;;;;;;;6.88;3.75;;;-3275.00;74.50;;;;;;5054961;28;20025;-79
2022/04/03 01:56:37;;;;;;;7.32;3.33;;;-3275.00;74.80;;;;;;5067998;28;20028;-79
2022/04/03 01:59:03;;;;;;;5.55;3.38;;;-3275.10;74.50;;;;;;5070289;28;20042;-79
2022/04/03 02:01:34;;;;;;;6.85;3.88;;;-3275.10;74.70;;;;;;5068881;28;20432;-79
2022/04/03 02:04:00;;;;;;;6.80;3.70;;;-3275.10;74.80;;;;;;5068103;28;20365;-79
2022/04/03 02:06:26;;;;;;;6.53;3.15;;;-3275.10;74.60;;;;;;5049073;28;20028;-79
2022/04/03 02:08:52;;;;;;;5.18;3.20;;;-3275.10;74.50;;;;;;5050592;28;20096;-79
2022/04/03 02:11:18;;;;;;;6.55;3.40;;;-3275.10;74.50;;;;;;5065871;28;20159;-79
2022/04/03 02:13:43;;;;;;;6.57;3.33;;;-3275.20;74.60;;;;;;5067585;28;20561;-79
2022/04/03 02:16:09;;;;;;;5.88;3.40;;;-3275.00;74.50;;;;;;5036946;28;20438;-79
2022/04/03 02:18:35;;;;;;;8.30;3.55;;;-3275.00;74.60;;;;;;5052182;28;20025;-79
2022/04/03 02:21:01;;;;;;;6.05;3.25;;;-3275.00;74.50;;;;;;5052701;28;20502;-78
2022/04/03 02:23:26;;;;;;;7.10;3.33;;;-3274.90;74.80;;;;;;5050916;28;20119;-78
2022/04/03 02:25:52;;;;;;;6.80;3.35;;;-3274.90;75.00;;;;;;5066882;28;20498;-78
2022/04/03 02:28:18;;;;;;;6.50;3.38;;;-3274.90;75.20;;;;;;5046528;28;20499;-79
2022/04/03 02:30:44;;;;;;;7.38;3.47;;;-3274.90;75.50;;;;;;5063722;28;20086;-79
2022/04/03 02:33:09;;;;;;;7.03;3.97;;;-3274.90;75.80;;;;;;5049689;28;20048;-79
2022/04/03 02:35:35;;;;;;;9.65;3.83;;;-3274.90;76.10;;;;;;5066063;28;20492;-79
2022/04/03 02:38:00;;;;;;;5.70;3.65;;;-3274.80;76.10;;;;;;5049845;28;20267;-79
2022/04/03 02:40:26;;;;;;;9.38;3.83;;;-3274.70;76.60;;;;;;5068847;28;20098;-79
2022/04/03 02:42:54;;;;;;;6.22;3.45;;;-3274.70;77.30;;;;;;5051801;28;20401;-79
2022/04/03 02:45:20;;;;;;;7.50;3.50;;;-3274.70;77.60;;;;;;5065886;28;20468;-79
2022/04/03 02:47:53;;;;;;;6.57;3.40;;;-3274.60;78.00;;;;;;5041383;28;20035;-79
2022/04/03 02:50:24;;;;;;;8.77;3.50;;;-3274.60;78.40;;;;;;5043482;28;20032;-79
2022/04/03 02:52:52;;;;;;;7.15;3.42;;;-3274.50;78.80;;;;;;5066347;28;20039;-78
2022/04/03 02:55:19;;;;;;;6.78;3.58;;;-3274.50;79.20;;;;;;5053938;28;20021;-78
2022/04/03 02:57:45;;;;;;;7.20;3.95;;;-3274.50;79.60;;;;;;5061475;28;20033;-79
2022/04/03 03:00:14;;;;;;;9.23;4.13;;;-3274.40;79.80;;;;;;5058461;28;20029;-79
2022/04/03 03:02:44;;;;;;;6.32;3.63;;;-3274.40;79.80;;;;;;5042957;28;20081;-78
2022/04/03 03:05:10;;;;;;;6.15;3.28;;;-3274.40;80.00;;;;;;5046186;28;20369;-78
2022/04/03 03:07:37;;;;;;;6.53;3.85;;;-3274.40;80.10;;;;;;5046732;28;20035;-78
2022/04/03 03:10:04;;;;;;;7.28;3.63;;;-3274.40;80.10;;;;;;5065798;28;20121;-78
2022/04/03 03:12:30;;;;;;;6.30;3.33;;;-3274.50;80.10;;;;;;5051573;28;20031;-78
2022/04/03 03:14:56;;;;;;;7.65;3.85;;;-3274.50;80.10;;;;;;5046330;28;20025;-78
2022/04/03 03:17:22;;;;;;;5.93;3.88;;;-3274.50;80.00;;;;;;5048459;28;20143;-78
2022/04/03 03:19:47;;;;;;;7.10;4.00;;;-3274.50;80.10;;;;;;5063889;28;20489;-78
2022/04/03 03:22:13;;;;;;;6.78;3.85;;;-3274.50;80.20;;;;;;5043926;28;20138;-78
2022/04/03 03:24:38;;;;;;;5.68;3.63;;;-3274.50;80.50;;;;;;5050708;28;20029;-78
2022/04/03 03:27:04;;;;;;;7.53;3.60;;;-3274.40;80.90;;;;;;5060009;28;20107;-78
2022/04/03 03:29:30;;;;;;;13.48;4.13;;;-3274.40;81.10;;;;;;5047099;28;20470;-78
2022/04/03 03:31:55;;;;;;;6.18;3.92;;;-3274.30;81.20;;;;;;5066466;28;20039;-78
2022/04/03 03:34:21;;;;;;;7.03;3.88;;;-3274.20;81.40;;;;;;5062263;28;20692;-78
2022/04/03 03:36:47;;;;;;;6.63;4.03;;;-3274.20;81.60;;;;;;5061713;28;20054;-78
2022/04/03 03:39:13;;;;;;;8.77;4.18;;;-3274.10;81.80;;;;;;5067418;28;20023;-78
2022/04/03 03:41:39;;;;;;;10.48;4.32;;;-3274.10;82.20;;;;;;5066733;28;20025;-78
2022/04/03 03:44:10;;;;;;;9.68;4.05;;;-3274.10;82.80;;;;;;5070413;28;20029;-78
2022/04/03 03:46:39;;;;;;;7.35;4.40;;;-3274.10;83.00;;;;;;5060152;28;20459;-78
2022/04/03 03:49:09;;;;;;;9.60;4.28;;;-3274.10;83.20;;;;;;5067800;28;20034;-78
2022/04/03 03:51:37;;;;;;;7.95;4.47;;;-3274.20;83.40;;;;;;5064404;28;20434;-78
2022/04/03 03:54:03;;;;;;;7.32;4.20;;;-3274.20;83.50;;;;;;5065315;28;20085;-78
2022/04/03 03:56:29;;;;;;;8.80;4.18;;;-3274.10;83.60;;;;;;5066037;28;20555;-78
2022/04/03 03:58:55;;;;;;;7.20;4.28;;;-3274.10;83.70;;;;;;5067135;28;20051;-78
2022/04/03 04:01:21;;;;;;;7.70;4.18;;;-3274.10;83.70;;;;;;5065901;28;20108;-78
2022/04/03 04:03:47;;;;;;;11.95;4.50;;;-3274.00;83.60;;;;;;5068492;28;20073;-78
2022/04/03 04:06:12;;;;;;;6.43;3.70;;;-3274.00;83.60;;;;;;5061063;28;20368;-78
2022/04/03 04:08:38;;;;;;;6.22;4.00;;;-3273.80;83.50;;;;;;5069164;28;20059;-78
2022/04/03 04:11:03;;;;;;;7.25;4.68;;;-3273.80;83.60;;;;;;5065465;28;20035;-78
2022/04/03 04:13:29;;;;;;;7.40;3.95;;;-3273.80;83.90;;;;;;5065164;28;20017;-77
2022/04/03 04:15:54;;;;;;;7.72;4.55;;;-3273.80;83.90;;;;;;5062607;28;20518;-77
2022/04/03 04:18:20;;;;;;;6.72;3.70;;;-3273.80;84.10;;;;;;5066669;28;20039;-77
2022/04/03 04:20:46;;;;;;;6.68;4.38;;;-3274.00;84.60;;;;;;5060649;28;20456;-79
2022/04/03 04:23:13;;;;;;;7.97;4.25;;;-3274.00;84.50;;;;;;5071200;28;20081;-79
2022/04/03 04:25:38;;;;;;;6.70;4.00;;;-3274.00;84.80;;;;;;5067192;28;20434;-79
2022/04/03 04:28:05;;;;;;;7.00;4.20;;;-3274.10;85.00;;;;;;5072400;28;20032;-80
2022/04/03 04:30:31;;;;;;;8.80;4.43;;;-3274.00;85.10;;;;;;5068826;28;20031;-80
2022/04/03 04:32:56;;;;;;;8.13;3.85;;;-3274.10;85.30;;;;;;5063147;28;20021;-80
2022/04/03 04:35:22;;;;;;;6.25;3.88;;;-3274.00;85.40;;;;;;5068972;28;20040;-79
2022/04/03 04:37:48;;;;;;;6.07;4.32;;;-3274.10;85.60;;;;;;5054791;28;20116;-78
2022/04/03 04:40:14;;;;;;;10.50;4.80;;;-3274.10;85.80;;;;;;5054348;28;20154;-78
2022/04/03 04:42:39;;;;;;;12.95;4.97;;;-3274.10;85.70;;;;;;5049706;28;20052;-78
2022/04/03 04:45:09;;;;;;;9.35;4.57;;;-3274.10;85.70;;;;;;5067087;28;20065;-77
2022/04/03 04:47:38;;;;;;;9.38;4.50;;;-3274.00;85.60;;;;;;5071487;28;20062;-77
2022/04/03 04:50:07;;;;;;;9.77;5.00;;;-3274.10;85.70;;;;;;5031001;28;20044;-77
2022/04/03 04:52:33;;;;;;;8.57;4.68;;;-3274.10;85.80;;;;;;5052219;28;20044;-79
2022/04/03 04:54:58;;;;;;;7.80;4.40;;;-3274.00;85.80;;;;;;5069921;28;20064;-78
2022/04/03 04:57:25;;;;;;;9.50;4.70;;;-3274.00;85.80;;;;;;5068673;28;20036;-79
2022/04/03 04:59:50;;;;;;;8.05;4.30;;;-3273.90;85.60;;;;;;5053457;28;20028;-77
2022/04/03 05:02:16;;;;;;;8.55;4.45;;;-3273.90;85.90;;;;;;5050074;28;20123;-77
2022/04/03 05:04:41;;;;;;;8.57;5.07;;;-3273.90;86.00;;;;;;5064499;28;20031;-77
2022/04/03 05:07:09;;;;;;;8.98;4.47;;;-3273.90;86.10;;;;;;5047491;28;20024;-77
2022/04/03 05:09:35;;;;;;;7.10;4.70;;;-3274.00;86.30;;;;;;5069961;28;20031;-77
2022/04/03 05:12:01;;;;;;;9.07;4.80;;;-3274.00;86.20;;;;;;5066914;28;20020;-78
2022/04/03 05:14:27;;;;;;;10.02;4.57;;;-3273.90;86.20;;;;;;5052386;28;20444;-78
2022/04/03 05:16:53;;;;;;;8.05;4.55;;;-3273.90;86.40;;;;;;5067657;28;20017;-79
2022/04/03 05:19:18;;;;;;;8.38;5.22;;;-3274.10;86.90;;;;;;5066219;28;20067;-79
2022/04/03 05:21:44;;;;;;;9.90;5.38;;;-3274.30;86.80;;;;;;5052757;28;20103;-78
2022/04/03 05:24:09;;;;;;;9.68;5.28;;;-3274.40;86.70;;;;;;5040861;28;21145;-78
2022/04/03 05:26:35;;;;;;;8.88;4.82;;;-3274.50;86.60;;;;;;5043032;28;20537;-78
2022/04/03 05:29:01;;;;;;;8.68;4.75;;;-3274.50;86.50;;;;;;5042312;28;20394;-78
2022/04/03 05:31:27;;;;;;;9.75;4.85;;;-3274.70;86.40;;;;;;5066909;28;20380;-78
2022/04/03 05:33:55;;;;;;;8.65;5.10;;;-3274.70;86.20;;;;;;5047550;28;20020;-78
2022/04/03 05:36:21;;;;;;;9.23;4.97;;;-3274.70;86.10;;;;;;5059253;28;20048;-78
2022/04/03 05:38:47;;;;;;;8.45;4.70;;;-3274.80;86.10;;;;;;5070826;28;20028;-77
2022/04/03 05:41:12;;;;;;;9.07;4.90;;;-3274.80;86.00;;;;;;5063435;28;20028;-77
2022/04/03 05:43:38;;;;;;;9.95;4.50;;;-3274.80;86.00;;;;;;5072320;28;20553;-78
2022/04/03 05:46:03;;;;;;;9.63;5.57;;;-3275.00;85.90;;;;;;5065231;28;20170;-77
2022/04/03 05:48:29;;;;;;;7.80;5.00;;;-3275.10;85.80;;;;;;5068893;28;20073;-77
2022/04/03 05:50:54;;;;;;;8.52;4.55;;;-3275.20;85.60;;;;;;5058900;28;20545;-77
2022/04/03 05:53:21;;;;;;;10.07;5.10;;;-3275.30;85.40;;;;;;5066066;28;20032;-77
2022/04/03 05:55:47;;;;;;;7.97;4.63;;;-3275.30;85.30;;;;;;5065590;28;20025;-77
2022/04/03 05:58:12;;;;;;;11.32;4.90;;;-3275.40;85.30;;;;;;5064531;28;20154;-77
2022/04/03 06:00:38;;;;;;;10.15;4.50;;;-3275.60;85.20;;;;;;5060669;28;20107;-78
2022/04/03 06:03:04;;;;;;;10.75;4.90;;;-3275.70;85.00;;;;;;5069088;28;20044;-78
2022/04/03 06:05:34;;;;;;;6.38;3.92;;;-3275.80;84.90;;;;;;5065417;28;20025;-78
2022/04/03 06:08:03;;;;;;;8.30;4.55;;;-3275.90;84.70;;;;;;5062165;28;20044;-78
2022/04/03 06:10:29;;;;;;;8.60;4.90;;;-3276.00;84.80;;;;;;5061940;28;20034;-78
2022/04/03 06:13:06;;;;;;;7.78;4.13;;;-3276.00;84.60;;;;;;5070487;28;20078;-77
2022/04/03 06:15:43;;;;;;;7.45;4.55;;;-3276.00;84.70;;;;;;5067791;28;20078;-77
2022/04/03 06:18:18;;;;;;;6.18;3.83;;;-3276.10;84.60;;;;;;5068346;28;20032;-77
2022/04/03 06:20:44;;;;;;;7.35;4.13;;;-3276.10;84.60;;;;;;5070077;28;20488;-78
2022/04/03 06:23:14;;;;;;;8.57;4.45;;;-3276.30;84.60;;;;;;5064493;28;20174;-78
2022/04/03 06:25:40;;;;;;;7.35;4.47;;;-3276.40;84.60;;;;;;5077364;28;20093;-78
2022/04/03 06:28:07;;;;;;;8.00;4.32;;;-3276.40;84.60;;;;;;5064296;28;20036;-78
2022/04/03 06:30:32;;;;;;;6.25;4.20;;;-3276.60;84.70;;;;;;5065259;28;20606;-78
2022/04/03 06:32:58;;;;;;;6.97;3.80;;;0.00;84.40;;;;;;5067952;28;20024;-78
2022/04/03 06:35:23;;;;;;;6.40;3.60;;;0.00;84.10;;;;;;5063563;28;20105;-78
2022/04/03 06:37:49;;;;;;;5.53;3.53;;;0.10;84.10;;;;;;5067846;28;20031;-80
2022/04/03 06:40:16;;;;;;;5.97;3.38;;;0.30;84.00;;;;;;5051784;28;20021;-80
2022/04/03 06:42:42;;;;;;;9.57;3.90;;;0.30;83.50;;;;;;5063845;28;20090;-80
2022/04/03 06:45:08;;;;;;;7.75;3.53;;;0.50;83.40;;;;;;5041031;28;20068;-80
2022/04/03 06:47:35;;;;;;;9.43;3.22;;;0.60;83.30;;;;;;5046426;28;20058;-79
2022/04/03 06:50:01;;;;;;;6.50;3.13;;;0.60;83.00;;;;;;5058079;28;20039;-79
2022/04/03 06:52:26;;;;;;;7.00;3.20;;;0.80;82.90;;;;;;5068841;28;20111;-79
2022/04/03 06:54:52;;;;;;;5.82;2.90;;;0.80;82.90;;;;;;5048108;28;20074;-80
2022/04/03 06:57:18;;;;;;;9.05;3.33;;;0.90;83.10;;;;;;5065675;28;20031;-80
2022/04/03 06:59:46;;;;;;;5.05;3.13;;;0.80;83.00;;;;;;5058520;28;20513;-80
2022/04/03 07:02:11;;;;;;;4.05;2.17;;;0.80;83.20;;;;;;5043199;28;20111;-80
2022/04/03 07:04:37;;;;;;;4.38;2.40;;;0.80;83.40;;;;;;5063978;28;20036;-80
2022/04/03 07:07:03;;;;;;;4.97;2.72;;;0.80;83.60;;;;;;5047447;28;20488;-80
2022/04/03 07:09:29;;;;;;;6.82;2.83;;;0.80;83.90;;;;;;5051629;28;20035;-80
2022/04/03 07:11:55;;;;;;;4.50;2.75;;;0.80;84.00;;;;;;5050250;28;20059;-80
2022/04/03 07:14:22;;;;;;;6.43;2.53;;;0.80;84.20;;;;;;5063848;28;20052;-80
2022/04/03 07:16:47;;;;;;;6.13;3.10;;;0.80;84.50;;;;;;5046900;28;20029;-81
2022/04/03 07:19:13;;;;;;;10.13;2.90;;;0.80;84.80;;;;;;5065262;28;20040;-80
2022/04/03 07:21:38;;;;;;;6.57;2.85;;;1.00;85.10;;;;;;5066999;28;20036;-81
2022/04/03 07:24:04;;;;;;;5.30;3.10;;;1.00;85.00;;;;;;5046641;28;20388;-81
2022/04/03 07:26:31;;;;;;;7.10;3.08;;;1.10;85.20;;;;;;5035279;28;20029;-80
2022/04/03 07:28:57;;;;;;;5.25;2.92;;;1.00;85.20;;;;;;5055999;28;20074;-80
2022/04/03 07:31:22;;;;;;;4.55;2.45;;;1.10;85.50;;;;;;5062285;28;20032;-81
2022/04/03 07:33:48;;;;;;;4.85;2.75;;;1.10;85.80;;;;;;5061907;28;20432;-80
2022/04/03 07:36:14;;;;;;;5.30;2.70;;;1.10;86.10;;;;;;5058316;28;20282;-80
2022/04/03 07:38:39;;;;;;;4.40;2.33;;;1.20;86.30;;;;;;5064570;28;20028;-80
2022/04/03 07:41:05;;;;;;;7.10;2.75;;;1.30;86.30;;;;;;5045909;28;20024;-81
2022/04/03 07:43:32;;;;;;;5.75;2.78;;;1.30;86.50;;;;;;5068187;28;20044;-80
2022/04/03 07:45:58;;;;;;;7.57;2.85;;;1.30;86.90;;;;;;5050343;28;20024;-81
2022/04/03 07:48:23;;;;;;;5.57;2.83;;;1.40;87.30;;;;;;5064049;28;20033;-80
2022/04/03 07:50:49;;;;;;;5.85;3.00;;;1.40;87.60;;;;;;5040141;28;20029;-80
2022/04/03 07:53:14;;;;;;;6.07;2.88;;;1.40;87.80;;;;;;5047128;28;20115;-80
2022/04/03 07:55:40;;;;;;;6.68;2.90;;;1.40;88.00;;;;;;5045305;28;20047;-79
2022/04/03 07:58:06;;;;;;;5.88;2.58;;;1.60;88.10;;;;;;5047799;28;20036;-81
2022/04/03 08:00:33;;;;;;;4.47;2.65;;;1.80;87.90;;;;;;5061115;28;20422;-79
2022/04/03 08:02:58;;;;;;;10.98;3.55;;;1.80;87.90;;;;;;5046760;28;20380;-79
2022/04/03 08:05:24;;;;;;;4.90;2.83;;;2.00;88.00;;;;;;5051496;28;20039;-79
2022/04/03 08:07:49;;;;;;;5.40;2.60;;;2.10;87.30;;;;;;5045688;28;20029;-79
2022/04/03 08:10:18;;;;;;;5.85;3.00;;;2.30;87.10;;;;;;5054117;28;20067;-79
2022/04/03 08:12:45;;;;;;;8.40;2.67;;;2.50;86.90;;;;;;5070778;28;20029;-79
2022/04/03 08:15:12;;;;;;;5.00;2.70;;;2.60;86.00;;;;;;5054738;28;20058;-79
2022/04/03 08:17:39;;;;;;;5.30;2.38;;;3.00;86.30;;;;;;5067256;28;20047;-79
2022/04/03 08:20:06;;;;;;;7.32;2.38;;;2.90;85.50;;;;;;5071149;28;20020;-79
2022/04/03 08:22:32;;;;;;;5.47;2.25;;;2.80;85.20;;;;;;5047348;28;20029;-79
2022/04/03 08:24:57;;;;;;;7.85;2.38;;;3.00;85.20;;;;;;5069997;28;20034;-79
2022/04/03 08:27:23;;;;;;;4.65;2.40;;;2.90;85.10;;;;;;5056081;28;20544;-80
2022/04/03 08:29:49;;;;;;;3.80;2.20;;;3.10;85.10;;;;;;5069788;28;20036;-79
2022/04/03 08:32:15;;;;;;;5.60;1.75;;;3.10;85.10;;;;;;5051883;28;20025;-81
2022/04/03 08:34:40;;;;;;;6.05;2.33;;;3.30;84.40;;;;;;5063515;28;20095;-81
2022/04/03 08:37:06;;;;;;;6.93;2.30;;;3.50;83.90;;;;;;5062830;28;20036;-79
2022/04/03 08:39:33;;;;;;;8.70;2.10;;;3.70;83.80;;;;;;5051362;28;20021;-80
2022/04/03 08:41:59;;;;;;;5.22;2.35;;;3.80;82.60;;;;;;5049349;28;20078;-80
2022/04/03 08:44:25;;;;;;;3.63;1.85;;;4.40;83.60;;;;;;5071172;28;20044;-80
2022/04/03 08:46:51;;;;;;;3.53;1.92;;;4.20;81.30;;;;;;5051168;28;20025;-79
2022/04/03 08:49:19;;;;;;;5.00;2.00;;;4.30;81.90;;;;;;5066572;28;20044;-81
2022/04/03 08:51:46;;;;;;;3.95;2.20;;;4.30;81.10;;;;;;5065042;28;20025;-81
2022/04/03 08:54:16;;;;;;;3.78;1.80;;;4.50;81.30;;;;;;5060836;28;20439;-81
2022/04/03 08:56:42;;;;;;;6.43;2.22;;;4.60;79.50;;;;;;5047820;28;20115;-80
2022/04/03 08:59:09;;;;;;;4.22;1.70;;;5.00;79.50;;;;;;5050160;28;20025;-81
2022/04/03 09:01:34;;;;;;;2.78;1.77;;;5.00;78.80;;;;;;5052947;28;20060;-81
2022/04/03 09:04:00;;;;;;;3.13;1.75;;;5.40;78.00;;;;;;5063711;28;20067;-81
2022/04/03 09:06:26;;;;;;;5.00;1.95;;;5.30;77.80;;;;;;5072928;28;20086;-80
2022/04/03 09:08:51;;;;;;;3.22;1.65;;;5.60;78.00;;;;;;5055368;28;20214;-80
2022/04/03 09:11:18;;;;;;;5.35;1.70;;;5.50;76.00;;;;;;5050440;28;20025;-80
2022/04/03 09:13:44;;;;;;;5.60;1.92;;;5.80;76.00;;;;;;5068848;28;20028;-80
2022/04/03 09:16:11;;;;;;;4.03;1.63;;;6.20;75.30;;;;;;5054035;28;20024;-81
2022/04/03 09:18:51;;;;;;;4.03;1.67;;;5.60;75.30;;;;;;5050544;28;20035;-81
2022/04/03 09:21:27;;;;;;;5.05;1.75;;;5.70;75.10;;;;;;5053670;28;20113;-82
2022/04/03 09:24:07;;;;;;;4.47;1.80;;;6.30;74.60;;;;;;5068215;28;20035;-82
2022/04/03 09:26:34;;;;;;;2.70;1.52;;;7.20;73.30;;;;;;5050812;28;20037;-82
2022/04/03 09:29:16;;;;;;;5.35;1.95;;;6.90;71.30;;;;;;5071768;28;20078;-81
2022/04/03 09:31:44;;;;;;;5.75;1.38;;;7.20;71.10;;;;;;5050861;28;20068;-82
2022/04/03 09:34:29;;;;;;;4.45;1.60;;;6.50;72.10;;;;;;5053975;28;20032;-82
2022/04/03 09:37:05;;;;;;;3.25;1.23;;;6.80;72.10;;;;;;5065748;28;20488;-81
2022/04/03 09:39:31;;;;;;;4.57;1.20;;;6.80;71.80;;;;;;5073083;28;20021;-81
2022/04/03 09:42:12;;;;;;;5.13;1.25;;;7.10;69.20;;;;;;5068969;28;20483;-81
2022/04/03 09:44:40;;;;;;;4.40;1.40;;;7.50;67.70;;;;;;5072692;28;20036;-82
2022/04/03 09:47:24;;;;;;;4.65;1.30;;;7.60;66.80;;;;;;5073062;28;20086;-82
2022/04/03 09:49:54;;;;;;;8.27;1.65;;;7.10;67.30;;;;;;5066982;28;20360;-81
2022/04/03 09:52:39;;;;;;;6.60;1.35;;;7.10;68.80;;;;;;5071479;28;20479;-81
2022/04/03 09:55:14;;;;;;;3.83;1.52;;;6.40;69.50;;;;;;5062518;28;20021;-81
2022/04/03 09:57:40;;;;;;;4.28;1.65;;;6.50;71.10;;;;;;5061394;28;20036;-81
2022/04/03 10:00:06;;;;;;;4.85;1.20;;;6.40;71.00;;;;;;5066941;28;20036;-80
2022/04/03 10:02:32;;;;;;;3.90;1.40;;;6.30;71.60;;;;;;5071272;28;20033;-80
2022/04/03 10:04:58;;;;;;;6.25;1.40;;;6.10;72.30;;;;;;5059698;28;20017;-81
2022/04/03 10:07:25;;;;;;;2.63;1.33;;;5.90;73.40;;;;;;5069278;28;20056;-80
2022/04/03 10:09:52;;;;;;;3.22;1.38;;;5.30;77.90;;;;;;5068411;28;20488;-81
2022/04/03 10:12:20;;;;;;;3.00;1.30;;;4.90;80.70;;;;;;5067629;28;20020;-83
2022/04/03 10:14:49;;;;;;;3.70;0.88;;;4.60;81.30;;;;;;5074005;28;20032;-83
2022/04/03 10:17:16;;;;;;;5.18;1.20;;;4.40;81.80;;;;;;5069659;28;20032;-83
2022/04/03 10:19:42;;;;;;;2.63;0.98;;;4.40;83.20;;;;;;5066631;28;20031;-82
2022/04/03 10:22:22;;;;;;;0.80;0.50;;;4.30;83.50;;;;;;5080621;28;20174;-83
2022/04/03 10:24:52;;;;;;;1.95;0.70;;;4.50;83.30;;;;;;5072379;28;20032;-82
2022/04/03 10:27:23;;;;;;;1.92;0.85;;;4.60;83.00;;;;;;5065158;28;20082;-82
2022/04/03 10:29:49;;;;;;;;;;;5.00;83.30;;;;;;5065961;28;20185;-82
2022/04/03 10:32:23;;;;;;;2.25;0.70;;;5.20;82.30;;;;;;5069612;28;20007;-82
2022/04/03 10:34:51;;;;;;;2.17;0.77;;;5.40;81.10;;;;;;5066240;28;20021;-81
2022/04/03 10:37:38;;;;;;;2.42;0.80;;;5.40;80.50;;;;;;5052849;28;20040;-82
2022/04/03 10:40:16;;;;;;;4.53;0.77;;;5.60;79.30;;;;;;5038201;28;20107;-82
2022/04/03 10:43:02;;;;;;;6.13;1.00;;;5.70;78.50;;;;;;5048101;28;20024;-82
2022/04/03 10:45:33;;;;;;;4.07;1.67;;;5.70;79.20;;;;;;5068713;28;20416;-82
2022/04/03 10:48:21;;;;;;;5.20;1.00;;;6.00;79.20;;;;;;5065778;28;20025;-82
2022/04/03 10:51:09;;;;;;;2.25;0.63;;;6.50;78.50;;;;;;5046760;28;20080;-82
2022/04/03 10:53:38;;;;;;;3.65;0.88;;;6.40;75.40;;;;;;5059553;28;20049;-81
2022/04/03 10:56:24;;;;;;;0.88;0.50;;;6.40;76.40;;;;;;5063855;28;20509;-81
2022/04/03 10:58:52;;;;;;;4.15;0.90;;;6.60;74.70;;;;;;5060333;28;20051;-82
2022/04/03 11:01:26;;;;;;;3.83;0.90;;;7.20;74.80;;;;;;5051904;28;20028;-82
2022/04/03 11:04:07;;;;;;;1.77;0.90;;;7.50;72.50;;;;;;5048529;28;20063;-81
2022/04/03 11:06:34;;;;;;;1.08;0.77;;;7.50;71.70;;;;;;5069926;28;20509;-82
2022/04/03 11:09:05;;;;;;;1.70;0.85;;;7.00;71.40;;;;;;5066188;28;20070;-82
2022/04/03 11:11:58;;;;;;;3.97;0.60;;;7.20;72.60;;;;;;5048125;28;20044;-82
2022/04/03 11:14:57;;;;;;;2.97;0.73;;;7.40;70.40;;;;;;5044986;28;20806;-81
2022/04/03 11:17:42;;;;;;;0.55;0.35;;;8.00;72.70;;;;;;5066644;28;20031;-83
2022/04/03 11:20:08;;;;;;;0.68;0.30;;;7.90;67.90;;;;;;5049854;28;20028;-82
2022/04/03 11:22:35;;;;;;;1.77;0.38;;;7.60;68.70;;;;;;5052521;28;20476;-82
2022/04/03 11:25:02;;;;;;;2.15;0.50;;;8.10;70.50;;;;;;5043710;28;20021;-81
2022/04/03 11:27:27;;;;;;;1.52;0.40;;;8.50;69.10;;;;;;5048650;28;20025;-80
2022/04/03 11:29:53;;;;;;;0.77;0.45;;;8.20;67.90;;;;;;5067239;28;20383;-80
2022/04/03 11:32:20;;;;;;;0.47;0.40;;;8.10;69.40;;;;;;5068855;28;20422;-81
2022/04/03 11:34:56;;;;;;;1.35;0.52;;;8.30;64.80;;;;;;5058831;28;20028;-80
2022/04/03 11:37:22;;;;;;;1.05;0.60;;;8.90;66.60;;;;;;5070250;28;20486;-80
2022/04/03 11:39:47;;;;;;;1.20;0.65;;;9.30;66.80;;;;;;5055266;28;20074;-81
2022/04/03 11:42:13;;;;;;;2.33;0.57;;;9.40;63.80;;;;;;5056106;28;20559;-81
2022/04/03 11:44:41;;;;;;;1.73;0.70;;;8.70;63.00;;;;;;5047100;28;20028;-81
2022/04/03 11:47:17;;;;;;;5.75;0.75;;;8.10;66.00;;;;;;5048628;28;20074;-80
2022/04/03 11:49:44;;;;;;;1.85;0.75;;;7.30;68.00;;;;;;5070215;28;20029;-80
2022/04/03 11:52:10;;;;;;;1.40;0.50;;;6.30;75.70;;;;;;5067885;28;20032;-80
2022/04/03 11:54:38;;;;;;;1.40;0.30;;;5.30;79.30;;;;;;5049808;28;20028;-81
2022/04/03 11:57:08;;;;;;;1.80;0.38;;;4.80;78.70;;;;;;5060666;28;20025;-80
2022/04/03 11:59:37;;;;;;;1.83;0.88;;;4.70;79.60;;;;;;5055290;28;20061;-80
2022/04/03 12:02:14;;;;;;;1.17;0.40;;;4.30;78.40;;;;;;5052818;28;20040;-80
2022/04/03 12:04:41;;;;;;;2.15;0.40;;;3.90;78.60;;;;;;5049139;28;20025;-80
2022/04/03 12:07:13;;;;;;;2.47;0.80;;;4.10;78.10;;;;;;5074203;28;20028;-80
2022/04/03 12:09:42;;;;;;;0.52;0.47;;;4.10;81.40;;;;;;5072383;28;20024;-80
2022/04/03 12:12:09;;;;;;;3.15;0.88;;;4.30;82.70;;;;;;5046930;28;20480;-80
2022/04/03 12:14:37;;;;;;;1.27;0.60;;;4.40;82.60;;;;;;5075285;28;20021;-80
2022/04/03 12:17:06;;;;;;;2.58;0.73;;;4.60;82.40;;;;;;5071237;28;20037;-81
2022/04/03 12:19:44;;;;;;;0.65;0.60;;;5.40;81.10;;;;;;5061730;28;20085;-80
2022/04/03 12:22:12;;;;;;;1.88;0.55;;;6.20;78.30;;;;;;5041641;28;20472;-80
2022/04/03 12:24:39;;;;;;;0.82;0.50;;;6.90;74.10;;;;;;5055958;28;20028;-80
2022/04/03 12:27:14;;;;;;;1.38;0.60;;;7.20;72.00;;;;;;5049524;28;20036;-81
2022/04/03 12:29:51;;;;;;;1.88;0.80;;;7.30;70.70;;;;;;5050261;28;20529;-81
2022/04/03 12:32:32;;;;;;;1.23;0.80;;;7.90;70.10;;;;;;5050536;28;20047;-80
2022/04/03 12:34:58;;;;;;;3.38;0.63;;;9.00;68.00;;;;;;5048132;28;20028;-81
2022/04/03 12:37:23;;;;;;;1.30;0.60;;;9.30;63.90;;;;;;5048139;28;20029;-81
2022/04/03 12:39:52;;;;;;;0.70;0.50;;;9.50;65.60;;;;;;5073136;28;20073;-81